Time;durP1;ratioP1;P1;durP2;ratioP2;P2;SDS_P1;SDS_P2;PMS_P1;PMS_P2;Temp;Humidity;BMP_temperature;BMP_pressure;BME280_temperature;BME280_humidity;BME280_pressure;Samples;Min_cycle;Max_cycle;Signal;HPM_P1;HPM_P2
2024/01/07 00:01:57;;;;;;;9.88;1.80;;;27.40;99.90;;;;;;5070660;28;20226;-79
2024/01/07 00:04:28;;;;;;;9.60;1.70;;;27.30;99.90;;;;;;5070564;28;20192;-82
2024/01/07 00:07:01;;;;;;;9.80;1.50;;;27.50;99.90;;;;;;5073190;28;20646;-82
2024/01/07 00:09:32;;;;;;;5.68;1.40;;;27.70;99.90;;;;;;5091226;28;20657;-80
2024/01/07 00:12:03;;;;;;;8.05;1.58;;;27.70;99.90;;;;;;5100970;28;20661;-81
2024/01/07 00:14:34;;;;;;;9.00;2.08;;;27.80;99.90;;;;;;5075988;28;20224;-80
2024/01/07 00:17:04;;;;;;;7.22;1.65;;;27.90;99.90;;;;;;5077673;28;20195;-80
2024/01/07 00:19:35;;;;;;;5.88;1.52;;;27.90;99.90;;;;;;5075668;28;20211;-80
2024/01/07 00:22:08;;;;;;;4.82;1.70;;;28.00;99.90;;;;;;5070498;28;20303;-79
2024/01/07 00:24:39;;;;;;;10.27;1.70;;;28.00;99.90;;;;;;5070354;28;20199;-79
2024/01/07 00:27:10;;;;;;;6.57;1.40;;;28.10;99.90;;;;;;5077652;28;20199;-79
2024/01/07 00:29:41;;;;;;;9.82;1.55;;;28.20;99.90;;;;;;5090804;28;20191;-79
2024/01/07 00:32:11;;;;;;;5.75;1.55;;;28.20;99.90;;;;;;5077416;28;20204;-81
2024/01/07 00:34:42;;;;;;;8.30;1.80;;;28.20;99.90;;;;;;5090166;28;20221;-80
2024/01/07 00:37:17;;;;;;;7.70;1.60;;;28.20;99.90;;;;;;5076566;28;20202;-80
2024/01/07 00:39:48;;;;;;;6.05;1.70;;;28.10;99.90;;;;;;5077008;28;20195;-82
2024/01/07 00:42:19;;;;;;;7.65;1.58;;;28.10;99.90;;;;;;5077770;28;20209;-80
2024/01/07 00:44:49;;;;;;;9.82;1.63;;;28.20;99.90;;;;;;5090026;28;20689;-83
2024/01/07 00:47:20;;;;;;;7.57;1.65;;;28.20;99.90;;;;;;5084717;28;20286;-82
2024/01/07 00:49:51;;;;;;;7.63;2.10;;;28.40;99.90;;;;;;5070300;28;20199;-80
2024/01/07 00:52:25;;;;;;;8.65;1.85;;;28.50;99.90;;;;;;5075837;28;20194;-82
2024/01/07 00:54:55;;;;;;;9.43;1.83;;;28.40;99.90;;;;;;5089490;28;20635;-81
2024/01/07 00:57:26;;;;;;;6.68;1.60;;;28.40;99.90;;;;;;5094157;28;20199;-82
2024/01/07 00:59:57;;;;;;;7.15;1.80;;;28.40;99.90;;;;;;5098155;28;20223;-80
2024/01/07 01:02:28;;;;;;;6.72;1.70;;;28.50;99.90;;;;;;5088655;28;20316;-80
2024/01/07 01:04:58;;;;;;;10.55;2.00;;;28.50;99.90;;;;;;5083509;28;20735;-81
2024/01/07 01:07:31;;;;;;;10.18;1.88;;;28.50;99.90;;;;;;5081818;28;20191;-80
2024/01/07 01:10:02;;;;;;;14.18;2.25;;;28.60;99.90;;;;;;5084491;28;20200;-80
2024/01/07 01:12:33;;;;;;;9.43;1.60;;;28.60;99.90;;;;;;5087560;28;20206;-80
2024/01/07 01:15:03;;;;;;;5.38;1.63;;;28.50;99.90;;;;;;5089772;28;20227;-80
2024/01/07 01:17:34;;;;;;;12.85;1.90;;;28.40;99.90;;;;;;5071107;28;20200;-80
2024/01/07 01:20:05;;;;;;;4.60;1.52;;;28.30;99.90;;;;;;5080332;28;20196;-80
2024/01/07 01:22:38;;;;;;;4.85;1.38;;;28.40;99.90;;;;;;5081122;28;20278;-79
2024/01/07 01:25:10;;;;;;;6.93;1.60;;;28.40;99.90;;;;;;5088387;28;20195;-82
2024/01/07 01:27:40;;;;;;;6.00;1.60;;;28.40;99.90;;;;;;5089784;28;20199;-82
2024/01/07 01:30:12;;;;;;;10.15;1.80;;;28.50;99.90;;;;;;5086892;28;20208;-82
2024/01/07 01:32:44;;;;;;;6.15;1.42;;;28.50;99.90;;;;;;5088542;28;20195;-77
2024/01/07 01:35:14;;;;;;;7.45;1.60;;;28.50;99.90;;;;;;5087327;28;20214;-80
2024/01/07 01:37:47;;;;;;;10.23;1.90;;;28.60;99.90;;;;;;5075863;28;20200;-80
2024/01/07 01:40:19;;;;;;;9.45;1.80;;;28.60;99.90;;;;;;5081172;28;20580;-81
2024/01/07 01:42:50;;;;;;;7.88;1.88;;;28.70;99.90;;;;;;5083792;28;20203;-80
2024/01/07 01:45:21;;;;;;;8.32;1.95;;;28.80;99.90;;;;;;5089513;28;20639;-80
2024/01/07 01:47:52;;;;;;;6.13;1.55;;;28.90;99.90;;;;;;5083934;28;20223;-80
2024/01/07 01:50:23;;;;;;;5.25;1.77;;;29.00;99.90;;;;;;5085003;28;20201;-80
2024/01/07 01:52:57;;;;;;;8.32;1.55;;;28.90;99.90;;;;;;5089248;28;20201;-80
2024/01/07 01:55:28;;;;;;;5.40;1.25;;;28.80;99.90;;;;;;5086185;28;20220;-80
2024/01/07 01:58:03;;;;;;;7.70;1.70;;;28.70;99.90;;;;;;5073382;28;20238;-80
2024/01/07 02:00:34;;;;;;;8.15;1.80;;;28.50;99.90;;;;;;5084803;28;20560;-80
2024/01/07 02:03:05;;;;;;;7.85;1.60;;;28.50;99.90;;;;;;5093147;28;20569;-80
2024/01/07 02:05:36;;;;;;;7.63;1.75;;;28.50;99.90;;;;;;5093838;28;20199;-80
2024/01/07 02:08:10;;;;;;;9.95;1.67;;;28.60;99.90;;;;;;5085870;28;20647;-79
2024/01/07 02:10:41;;;;;;;10.20;2.17;;;28.80;99.90;;;;;;5073058;28;20204;-79
2024/01/07 02:13:11;;;;;;;9.20;1.88;;;28.80;99.90;;;;;;5087371;28;20200;-79
2024/01/07 02:15:42;;;;;;;8.32;1.92;;;28.80;99.90;;;;;;5092977;28;20222;-80
2024/01/07 02:18:13;;;;;;;7.78;1.88;;;28.70;99.90;;;;;;5093591;28;20245;-80
2024/01/07 02:20:44;;;;;;;8.55;2.00;;;28.30;99.90;;;;;;5091396;28;20662;-80
2024/01/07 02:23:16;;;;;;;10.38;2.10;;;28.00;99.90;;;;;;5095982;28;20199;-79
2024/01/07 02:25:49;;;;;;;10.32;2.20;;;28.10;99.90;;;;;;5084094;28;20202;-79
2024/01/07 02:28:20;;;;;;;7.63;1.83;;;28.10;99.90;;;;;;5081357;28;20206;-80
2024/01/07 02:30:51;;;;;;;8.02;1.63;;;28.20;99.90;;;;;;5088574;28;20203;-80
2024/01/07 02:33:21;;;;;;;9.32;1.75;;;28.30;99.90;;;;;;5091840;28;20192;-79
2024/01/07 02:35:52;;;;;;;10.50;1.95;;;28.60;99.90;;;;;;5071931;28;20219;-79
2024/01/07 02:38:23;;;;;;;7.57;1.95;;;28.70;99.90;;;;;;5072382;28;20200;-79
2024/01/07 02:40:56;;;;;;;12.77;2.00;;;28.70;99.90;;;;;;5084926;28;20195;-79
2024/01/07 02:43:26;;;;;;;9.25;2.03;;;28.80;99.90;;;;;;5075986;28;20203;-79
2024/01/07 02:45:57;;;;;;;12.40;2.45;;;28.90;99.90;;;;;;5079929;28;20191;-79
2024/01/07 02:48:28;;;;;;;7.28;1.75;;;28.90;99.90;;;;;;5086903;28;20195;-79
2024/01/07 02:50:59;;;;;;;8.55;2.05;;;28.90;99.90;;;;;;5082727;28;20195;-79
2024/01/07 02:53:30;;;;;;;8.43;1.90;;;28.80;99.90;;;;;;5091450;28;20203;-80
2024/01/07 02:56:03;;;;;;;6.97;1.67;;;28.80;99.90;;;;;;5083811;28;20219;-79
2024/01/07 02:58:34;;;;;;;9.20;2.05;;;28.80;99.90;;;;;;5084770;28;20222;-79
2024/01/07 03:01:06;;;;;;;8.10;2.17;;;28.60;99.90;;;;;;5083277;28;20302;-79
2024/01/07 03:03:37;;;;;;;8.65;1.92;;;28.50;99.90;;;;;;5084008;28;20306;-79
2024/01/07 03:06:08;;;;;;;8.18;1.83;;;28.40;99.90;;;;;;5091470;28;20206;-78
2024/01/07 03:08:39;;;;;;;8.60;2.00;;;28.50;99.90;;;;;;5084756;28;20226;-79
2024/01/07 03:11:11;;;;;;;5.18;1.55;;;28.60;99.90;;;;;;5076936;28;20561;-78
2024/01/07 03:13:44;;;;;;;9.88;2.55;;;28.70;99.90;;;;;;5077738;28;20199;-78
2024/01/07 03:16:23;;;;;;;9.10;1.85;;;28.90;99.90;;;;;;5070505;28;20228;-78
2024/01/07 03:18:54;;;;;;;12.70;1.92;;;29.00;99.90;;;;;;5071941;28;20784;-80
2024/01/07 03:21:26;;;;;;;9.88;2.30;;;29.20;99.90;;;;;;5071125;28;20192;-77
2024/01/07 03:23:57;;;;;;;10.88;2.13;;;29.30;99.90;;;;;;5067989;28;20270;-79
2024/01/07 03:26:34;;;;;;;11.13;2.65;;;29.40;99.90;;;;;;5073601;28;20192;-79
2024/01/07 03:29:04;;;;;;;9.10;2.33;;;29.40;99.90;;;;;;5070047;28;20665;-78
2024/01/07 03:31:35;;;;;;;7.40;1.98;;;29.40;99.90;;;;;;5074451;28;20210;-79
2024/01/07 03:34:06;;;;;;;10.73;1.95;;;29.40;99.90;;;;;;5082707;28;20200;-77
2024/01/07 03:36:37;;;;;;;8.93;1.90;;;29.50;99.90;;;;;;5073170;28;20227;-78
2024/01/07 03:39:08;;;;;;;9.25;2.03;;;29.40;99.90;;;;;;5080992;28;20295;-78
2024/01/07 03:41:41;;;;;;;7.25;1.90;;;29.40;99.90;;;;;;5072492;28;20224;-78
2024/01/07 03:44:12;;;;;;;7.57;1.88;;;29.30;99.90;;;;;;5068374;28;20200;-78
2024/01/07 03:46:42;;;;;;;8.90;2.13;;;29.20;99.90;;;;;;5077180;28;22690;-79
2024/01/07 03:49:14;;;;;;;9.43;2.10;;;29.20;99.90;;;;;;5075459;28;20283;-78
2024/01/07 03:51:45;;;;;;;7.20;1.75;;;29.20;99.90;;;;;;5081005;28;20210;-78
2024/01/07 03:54:16;;;;;;;9.60;2.08;;;29.10;99.90;;;;;;5078901;28;20669;-78
2024/01/07 03:56:49;;;;;;;7.43;1.75;;;29.10;99.90;;;;;;5077678;28;20226;-79
2024/01/07 03:59:19;;;;;;;8.07;1.65;;;29.10;99.90;;;;;;5090295;28;20227;-79
2024/01/07 04:01:50;;;;;;;11.52;1.98;;;29.20;99.90;;;;;;5078847;28;20199;-79
2024/01/07 04:04:21;;;;;;;8.80;1.90;;;29.10;99.90;;;;;;5078515;28;20202;-78
2024/01/07 04:06:58;;;;;;;10.98;2.05;;;29.00;99.90;;;;;;5084593;28;20751;-79
2024/01/07 04:09:29;;;;;;;9.48;2.05;;;28.90;99.90;;;;;;5085865;28;20278;-77
2024/01/07 04:12:02;;;;;;;6.47;1.67;;;29.00;99.90;;;;;;5078627;28;20241;-78
2024/01/07 04:14:34;;;;;;;9.60;2.03;;;28.90;99.90;;;;;;5081794;28;20279;-78
2024/01/07 04:17:08;;;;;;;8.75;2.00;;;29.00;99.90;;;;;;5089750;28;20221;-77
2024/01/07 04:19:48;;;;;;;7.72;1.80;;;29.10;99.90;;;;;;5074961;28;20230;-77
2024/01/07 04:22:20;;;;;;;7.03;1.95;;;29.10;99.90;;;;;;5081344;28;20217;-77
2024/01/07 04:24:59;;;;;;;7.65;2.20;;;29.20;99.90;;;;;;5078104;28;20211;-79
2024/01/07 04:27:37;;;;;;;7.88;1.83;;;29.20;99.90;;;;;;5083345;28;20192;-78
2024/01/07 04:30:09;;;;;;;8.32;1.90;;;29.10;99.90;;;;;;5078698;28;20199;-76
2024/01/07 04:32:40;;;;;;;8.18;1.80;;;29.10;99.90;;;;;;5087947;28;20214;-78
2024/01/07 04:35:11;;;;;;;10.55;2.17;;;29.10;99.90;;;;;;5087431;28;20688;-78
2024/01/07 04:37:42;;;;;;;7.97;1.67;;;28.90;99.90;;;;;;5081894;28;20273;-78
2024/01/07 04:40:14;;;;;;;9.60;1.80;;;28.80;99.90;;;;;;5079787;28;20284;-78
2024/01/07 04:42:47;;;;;;;10.88;1.88;;;28.90;99.90;;;;;;5089750;28;20565;-77
2024/01/07 04:45:17;;;;;;;9.75;1.98;;;28.70;99.90;;;;;;5083455;28;20278;-78
2024/01/07 04:47:48;;;;;;;8.40;1.98;;;28.90;99.90;;;;;;5079303;28;20207;-77
2024/01/07 04:50:19;;;;;;;9.32;1.85;;;28.90;99.90;;;;;;5082335;28;20196;-77
2024/01/07 04:52:50;;;;;;;8.15;1.60;;;28.80;99.90;;;;;;5080221;28;20249;-78
2024/01/07 04:55:21;;;;;;;11.10;2.20;;;28.90;99.90;;;;;;5072870;28;20221;-78
2024/01/07 04:57:53;;;;;;;11.02;1.90;;;28.90;99.90;;;;;;5082780;28;20234;-77
2024/01/07 05:00:24;;;;;;;9.10;1.98;;;28.80;99.90;;;;;;5083971;28;20198;-77
2024/01/07 05:02:55;;;;;;;14.73;2.30;;;28.90;99.90;;;;;;5080259;28;20548;-77
2024/01/07 05:05:26;;;;;;;8.55;1.80;;;29.00;99.90;;;;;;5078375;28;20587;-79
2024/01/07 05:07:59;;;;;;;11.40;2.22;;;29.00;99.90;;;;;;5087298;28;20243;-78
2024/01/07 05:10:29;;;;;;;7.90;2.35;;;29.00;99.90;;;;;;5078505;28;20207;-78
2024/01/07 05:13:04;;;;;;;9.45;2.00;;;28.90;99.90;;;;;;5081772;28;20237;-78
2024/01/07 05:15:35;;;;;;;9.50;2.03;;;28.90;99.90;;;;;;5088419;28;20210;-77
2024/01/07 05:18:09;;;;;;;10.15;2.22;;;29.00;99.90;;;;;;5075700;28;20231;-76
2024/01/07 05:20:40;;;;;;;6.20;1.70;;;29.10;99.90;;;;;;5074565;28;20219;-76
2024/01/07 05:23:15;;;;;;;8.52;2.00;;;29.10;99.90;;;;;;5075654;28;20202;-76
2024/01/07 05:25:47;;;;;;;6.13;1.55;;;29.30;99.90;;;;;;5090794;28;20671;-76
2024/01/07 05:28:23;;;;;;;7.70;1.25;;;29.30;99.90;;;;;;5088957;28;20564;-76
2024/01/07 05:30:58;;;;;;;7.88;2.00;;;29.40;99.90;;;;;;5071892;28;20253;-77
2024/01/07 05:33:30;;;;;;;9.52;1.73;;;29.70;99.90;;;;;;5078450;28;20201;-77
2024/01/07 05:36:04;;;;;;;9.65;2.00;;;29.90;99.90;;;;;;5080221;28;20218;-76
2024/01/07 05:38:35;;;;;;;9.95;2.08;;;30.00;99.90;;;;;;5074742;28;20195;-76
2024/01/07 05:41:06;;;;;;;12.10;2.00;;;30.10;99.90;;;;;;5084770;28;20206;-76
2024/01/07 05:43:40;;;;;;;7.38;1.90;;;30.20;99.90;;;;;;5073295;28;20654;-76
2024/01/07 05:46:11;;;;;;;9.25;2.20;;;30.20;99.90;;;;;;5086813;28;20544;-76
2024/01/07 05:48:50;;;;;;;7.07;1.95;;;30.20;99.90;;;;;;5083121;28;20226;-75
2024/01/07 05:51:21;;;;;;;10.52;2.50;;;30.20;99.90;;;;;;5085648;28;20562;-76
2024/01/07 05:54:02;;;;;;;10.05;2.20;;;30.30;99.90;;;;;;5087819;28;20199;-76
2024/01/07 05:56:33;;;;;;;8.25;1.83;;;30.30;99.90;;;;;;5074003;28;20216;-77
2024/01/07 05:59:08;;;;;;;8.13;2.20;;;30.40;99.90;;;;;;5082018;28;20215;-76
2024/01/07 06:01:39;;;;;;;8.98;2.17;;;30.50;99.90;;;;;;5074876;28;20662;-77
2024/01/07 06:04:09;;;;;;;8.23;2.20;;;30.70;99.90;;;;;;5081426;28;20223;-77
2024/01/07 06:06:40;;;;;;;11.07;2.10;;;30.80;99.90;;;;;;5083427;28;20666;-77
2024/01/07 06:09:11;;;;;;;8.57;1.70;;;30.90;99.90;;;;;;5080914;28;20192;-76
2024/01/07 06:11:41;;;;;;;9.23;1.95;;;30.90;99.90;;;;;;5083440;28;20228;-76
2024/01/07 06:14:15;;;;;;;8.90;1.92;;;31.10;99.90;;;;;;5087266;28;20576;-77
2024/01/07 06:16:46;;;;;;;10.65;2.35;;;31.30;99.90;;;;;;5083903;28;20254;-78
2024/01/07 06:19:16;;;;;;;9.27;2.35;;;31.50;99.90;;;;;;5091669;28;20297;-76
2024/01/07 06:21:47;;;;;;;9.43;2.13;;;31.60;99.90;;;;;;5093054;28;20215;-76
2024/01/07 06:24:18;;;;;;;9.27;1.95;;;31.80;99.90;;;;;;5074746;28;20199;-76
2024/01/07 06:26:48;;;;;;;8.75;2.17;;;32.00;99.90;;;;;;5080936;28;20203;-76
2024/01/07 06:29:21;;;;;;;8.73;2.17;;;32.20;99.90;;;;;;5084182;28;20195;-75
2024/01/07 06:31:52;;;;;;;9.20;2.30;;;32.20;99.90;;;;;;5092444;28;20195;-77
2024/01/07 06:34:23;;;;;;;10.45;2.42;;;32.20;99.90;;;;;;5087615;28;20566;-78
2024/01/07 06:36:54;;;;;;;11.45;2.20;;;32.10;99.90;;;;;;5089946;28;20229;-77
2024/01/07 06:39:25;;;;;;;13.05;2.55;;;32.10;99.90;;;;;;5089267;28;20248;-76
2024/01/07 06:41:56;;;;;;;10.38;2.13;;;32.30;99.90;;;;;;5078190;28;20191;-76
2024/01/07 06:44:30;;;;;;;8.98;2.20;;;32.40;99.90;;;;;;5096202;28;20219;-78
2024/01/07 06:47:06;;;;;;;11.85;2.13;;;32.80;99.90;;;;;;5086651;28;20302;-78
2024/01/07 06:49:38;;;;;;;8.25;1.80;;;32.70;99.90;;;;;;5091849;28;20590;-77
2024/01/07 06:52:09;;;;;;;9.93;2.40;;;33.10;99.90;;;;;;5088350;28;20211;-77
2024/01/07 06:54:41;;;;;;;9.07;2.10;;;33.50;99.90;;;;;;5083460;28;20191;-77
2024/01/07 06:57:12;;;;;;;6.85;2.25;;;33.70;99.90;;;;;;5085036;28;20669;-77
2024/01/07 06:59:44;;;;;;;8.07;2.10;;;34.10;99.90;;;;;;5077376;28;20262;-77
2024/01/07 07:02:15;;;;;;;8.32;2.00;;;34.40;99.80;;;;;;5072932;28;20568;-78
2024/01/07 07:04:46;;;;;;;9.82;2.08;;;34.30;99.10;;;;;;5072607;28;20212;-77
2024/01/07 07:07:17;;;;;;;13.75;2.40;;;34.10;98.90;;;;;;5074208;28;20701;-77
2024/01/07 07:09:48;;;;;;;7.05;1.98;;;33.70;98.20;;;;;;5075117;28;20195;-76
2024/01/07 07:12:18;;;;;;;10.90;2.20;;;33.40;98.50;;;;;;5089372;28;20200;-76
2024/01/07 07:14:51;;;;;;;10.90;2.25;;;33.30;98.00;;;;;;5091435;28;20195;-77
2024/01/07 07:17:22;;;;;;;10.82;2.20;;;33.50;97.60;;;;;;5091456;28;20291;-78
2024/01/07 07:19:53;;;;;;;7.07;1.98;;;33.70;96.90;;;;;;5082316;28;20192;-77
2024/01/07 07:22:23;;;;;;;8.75;2.28;;;33.70;96.90;;;;;;5089877;28;20206;-78
2024/01/07 07:24:54;;;;;;;8.77;2.60;;;34.00;96.00;;;;;;5090830;28;20199;-77
2024/01/07 07:27:25;;;;;;;6.85;2.00;;;33.90;95.30;;;;;;5090420;28;20195;-77
2024/01/07 07:29:58;;;;;;;9.98;2.15;;;33.70;95.50;;;;;;5089381;28;20430;-75
2024/01/07 07:32:31;;;;;;;7.25;2.08;;;33.80;95.70;;;;;;5084066;28;20615;-76
2024/01/07 07:35:03;;;;;;;8.40;2.35;;;33.80;94.70;;;;;;5081597;28;20268;-76
2024/01/07 07:37:34;;;;;;;9.73;2.20;;;33.60;95.50;;;;;;5088825;28;20272;-77
2024/01/07 07:40:05;;;;;;;8.55;2.08;;;33.50;95.60;;;;;;5072379;28;20303;-77
2024/01/07 07:42:36;;;;;;;7.07;2.03;;;33.20;95.80;;;;;;5091344;28;20187;-77
2024/01/07 07:45:09;;;;;;;8.02;2.03;;;33.00;96.70;;;;;;5087889;28;20198;-77
2024/01/07 07:47:44;;;;;;;12.85;2.15;;;32.80;96.50;;;;;;5086147;28;20203;-78
2024/01/07 07:50:15;;;;;;;8.32;2.25;;;32.20;98.00;;;;;;5072115;28;20199;-77
2024/01/07 07:52:46;;;;;;;10.68;2.20;;;32.20;98.90;;;;;;5075687;28;20223;-77
2024/01/07 07:55:17;;;;;;;10.02;2.03;;;32.30;99.10;;;;;;5090979;28;20654;-77
2024/01/07 07:57:48;;;;;;;11.50;2.60;;;32.10;99.20;;;;;;5085446;28;20211;-78
2024/01/07 08:00:22;;;;;;;9.55;2.17;;;32.00;99.90;;;;;;5070620;28;20283;-77
2024/01/07 08:02:53;;;;;;;8.90;2.30;;;31.90;99.50;;;;;;5096084;28;20194;-77
2024/01/07 08:05:24;;;;;;;12.10;2.78;;;31.70;99.90;;;;;;5094283;28;20195;-76
2024/01/07 08:07:56;;;;;;;7.63;2.28;;;31.50;99.90;;;;;;5085395;28;20207;-77
2024/01/07 08:10:28;;;;;;;15.48;3.05;;;31.30;99.90;;;;;;5089500;28;20199;-76
2024/01/07 08:12:59;;;;;;;13.98;2.80;;;30.60;99.90;;;;;;5090830;28;20203;-76
2024/01/07 08:15:31;;;;;;;9.65;2.28;;;30.30;99.90;;;;;;5090717;28;20203;-77
2024/01/07 08:18:03;;;;;;;14.02;2.58;;;29.80;99.90;;;;;;5087963;28;20219;-77
2024/01/07 08:20:34;;;;;;;10.20;2.55;;;29.40;99.90;;;;;;5091002;28;20209;-77
2024/01/07 08:23:05;;;;;;;12.48;2.83;;;29.00;99.90;;;;;;5090726;28;20191;-77
2024/01/07 08:25:36;;;;;;;15.82;2.95;;;28.80;99.90;;;;;;5085579;28;20203;-76
2024/01/07 08:28:07;;;;;;;11.82;2.30;;;28.60;99.90;;;;;;5080688;28;20645;-77
2024/01/07 08:30:40;;;;;;;11.68;2.53;;;28.20;99.90;;;;;;5089419;28;20197;-77
2024/01/07 08:33:10;;;;;;;14.13;2.90;;;28.10;99.90;;;;;;5090256;28;20195;-77
2024/01/07 08:35:41;;;;;;;8.98;2.20;;;28.00;99.90;;;;;;5084590;28;20672;-77
2024/01/07 08:38:12;;;;;;;8.40;2.10;;;27.70;99.90;;;;;;5101121;28;20222;-78
2024/01/07 08:40:43;;;;;;;16.20;2.70;;;27.60;99.90;;;;;;5089753;28;20192;-78
2024/01/07 08:43:15;;;;;;;12.88;2.35;;;27.50;99.90;;;;;;5084932;28;20644;-77
2024/01/07 08:45:48;;;;;;;14.90;2.60;;;27.40;99.90;;;;;;5085947;28;20199;-78
2024/01/07 08:48:20;;;;;;;11.10;2.60;;;27.30;99.90;;;;;;5080830;28;20195;-77
2024/01/07 08:51:02;;;;;;;12.68;2.58;;;27.30;99.90;;;;;;5076309;28;20726;-78
2024/01/07 08:53:39;;;;;;;12.95;2.60;;;27.10;99.90;;;;;;5076513;28;20218;-77
2024/01/07 08:56:11;;;;;;;11.10;2.58;;;27.00;99.90;;;;;;5087752;28;20573;-77
2024/01/07 08:58:45;;;;;;;13.40;3.05;;;26.90;99.90;;;;;;5089048;28;20231;-78
2024/01/07 09:01:39;;;;;;;13.73;2.58;;;26.90;99.90;;;;;;5080854;28;20203;-78
2024/01/07 09:04:13;;;;;;;14.02;2.78;;;26.80;99.90;;;;;;5078134;28;20253;-77
2024/01/07 09:06:46;;;;;;;12.75;2.72;;;26.80;99.90;;;;;;5083466;28;20700;-78
2024/01/07 09:09:17;;;;;;;10.32;2.35;;;26.60;99.90;;;;;;5085431;28;20257;-77
2024/01/07 09:11:59;;;;;;;11.85;2.00;;;26.60;99.90;;;;;;5079066;28;20628;-77
2024/01/07 09:14:51;;;;;;;11.45;2.60;;;26.50;99.90;;;;;;5076082;28;20205;-77
2024/01/07 09:17:29;;;;;;;11.10;2.20;;;26.40;99.90;;;;;;5078005;28;20231;-76
2024/01/07 09:20:13;;;;;;;10.13;2.25;;;26.30;99.90;;;;;;5094478;28;20680;-78
2024/01/07 09:22:58;;;;;;;10.13;2.33;;;26.30;99.90;;;;;;5095707;28;20280;-77
2024/01/07 09:25:36;;;;;;;10.70;2.25;;;26.40;99.90;;;;;;5095546;28;20221;-77
2024/01/07 09:28:10;;;;;;;10.05;2.15;;;26.30;99.90;;;;;;5096823;28;20207;-77
2024/01/07 09:30:46;;;;;;;12.18;2.55;;;26.30;99.90;;;;;;5092525;28;20699;-77
2024/01/07 09:33:35;;;;;;;13.90;2.35;;;26.20;99.90;;;;;;5074637;28;20222;-77
2024/01/07 09:36:11;;;;;;;10.40;2.42;;;26.20;99.90;;;;;;5082760;28;20245;-76
2024/01/07 09:38:45;;;;;;;14.05;2.55;;;26.20;99.90;;;;;;5078184;28;20231;-76
2024/01/07 09:41:52;;;;;;;13.45;2.75;;;26.20;99.90;;;;;;5084145;28;20199;-79
2024/01/07 09:47:49;;;;;;;13.15;2.35;;;26.10;99.90;;;;;;5080888;28;20195;-77
2024/01/07 09:51:11;;;;;;;;;;;;;;;;;;;;;
2024/01/07 09:53:56;;;;;;;9.55;2.10;;;26.00;99.90;;;;;;5081597;28;20206;-77
2024/01/07 09:56:56;;;;;;;11.85;2.33;;;25.90;99.90;;;;;;5089046;28;20392;-78
2024/01/07 09:59:31;;;;;;;12.60;2.55;;;25.90;99.90;;;;;;5074274;28;20297;-78
2024/01/07 10:02:09;;;;;;;14.90;2.83;;;25.80;99.90;;;;;;5083244;28;20279;-77
2024/01/07 10:05:03;;;;;;;13.35;2.80;;;25.90;99.90;;;;;;5089219;28;20198;-78
2024/01/07 10:07:48;;;;;;;10.57;2.35;;;25.90;99.90;;;;;;5081549;28;20647;-76
2024/01/07 10:10:22;;;;;;;12.05;2.28;;;25.90;99.90;;;;;;5082044;28;20187;-76
2024/01/07 10:15:56;;;;;;;14.07;2.83;;;25.80;99.90;;;;;;5043403;28;20192;-77
2024/01/07 10:18:34;;;;;;;14.68;2.47;;;25.80;99.90;;;;;;5072711;28;20238;-77
2024/01/07 10:21:08;;;;;;;14.27;2.90;;;25.90;99.90;;;;;;5085738;28;20199;-77
2024/01/07 10:23:47;;;;;;;10.70;2.30;;;25.80;99.90;;;;;;5079564;28;20601;-77
2024/01/07 10:26:22;;;;;;;10.07;2.45;;;25.80;99.90;;;;;;5079743;28;20200;-78
2024/01/07 10:29:01;;;;;;;9.25;2.40;;;25.80;99.90;;;;;;5075050;28;20643;-77
2024/01/07 10:31:32;;;;;;;12.60;2.33;;;25.80;99.90;;;;;;5080488;28;20658;-77
2024/01/07 10:34:03;;;;;;;13.05;2.80;;;25.80;99.90;;;;;;5097373;28;20553;-77
2024/01/07 10:36:34;;;;;;;8.88;2.22;;;25.80;99.90;;;;;;5095059;28;20252;-77
2024/01/07 10:39:07;;;;;;;16.92;2.88;;;25.80;99.90;;;;;;5091675;28;20215;-77
2024/01/07 10:41:42;;;;;;;11.95;2.38;;;25.70;99.90;;;;;;5099627;28;20235;-75
2024/01/07 10:44:12;;;;;;;12.23;2.40;;;25.70;99.90;;;;;;5088909;28;20269;-77
2024/01/07 10:46:44;;;;;;;14.18;2.92;;;25.60;99.90;;;;;;5073382;28;20568;-76
2024/01/07 10:49:22;;;;;;;12.02;2.78;;;25.70;99.90;;;;;;5091823;28;20203;-76
2024/01/07 10:52:05;;;;;;;14.75;2.55;;;25.60;99.90;;;;;;5090757;28;20278;-77
2024/01/07 10:54:39;;;;;;;15.57;3.22;;;25.70;99.90;;;;;;5087820;28;20204;-77
2024/01/07 10:57:15;;;;;;;12.30;2.92;;;25.60;99.90;;;;;;5087669;28;20207;-76
2024/01/07 10:59:49;;;;;;;13.00;2.40;;;25.60;99.90;;;;;;5034505;28;20228;-77
2024/01/07 11:02:22;;;;;;;10.80;2.13;;;25.60;99.90;;;;;;5088243;28;20191;-78
2024/01/07 11:05:04;;;;;;;11.95;2.67;;;25.60;99.90;;;;;;5090064;28;20718;-78
2024/01/07 11:07:55;;;;;;;12.18;2.97;;;25.70;99.90;;;;;;5086211;28;20223;-78
2024/01/07 11:10:37;;;;;;;9.98;1.95;;;25.60;99.90;;;;;;4989730;28;20202;-78
2024/01/07 11:13:08;;;;;;;16.00;2.65;;;25.60;99.90;;;;;;5032160;28;20578;-77
2024/01/07 11:15:55;;;;;;;14.50;2.85;;;25.50;99.90;;;;;;5079735;28;20199;-77
2024/01/07 11:18:31;;;;;;;13.27;2.80;;;25.60;99.90;;;;;;5071457;28;20220;-77
2024/01/07 11:21:03;;;;;;;13.18;2.65;;;25.50;99.90;;;;;;5078474;28;20191;-77
2024/01/07 11:23:37;;;;;;;11.50;2.40;;;25.50;99.90;;;;;;5077740;28;20199;-77
2024/01/07 11:26:11;;;;;;;14.05;2.88;;;25.50;99.90;;;;;;5079325;28;20317;-78
2024/01/07 11:28:49;;;;;;;13.60;2.72;;;25.50;99.90;;;;;;5073146;28;20322;-78
2024/01/07 11:31:21;;;;;;;10.63;2.60;;;25.50;99.90;;;;;;5090676;28;20233;-77
2024/01/07 11:33:52;;;;;;;9.18;2.30;;;25.50;99.90;;;;;;5087642;28;20657;-77
2024/01/07 11:36:24;;;;;;;10.18;2.58;;;25.50;99.90;;;;;;5081824;28;20184;-78
2024/01/07 11:38:55;;;;;;;11.65;2.72;;;25.50;99.90;;;;;;5084184;28;20218;-78
2024/01/07 11:41:28;;;;;;;14.70;2.67;;;25.50;99.90;;;;;;5085041;28;20192;-78
2024/01/07 11:44:00;;;;;;;11.02;2.30;;;25.40;99.90;;;;;;5088835;28;20293;-77
2024/01/07 11:46:35;;;;;;;9.13;2.33;;;25.40;99.90;;;;;;5093383;28;20199;-77
2024/01/07 11:49:20;;;;;;;12.35;2.30;;;25.40;99.90;;;;;;5119773;27;20527;-77
2024/01/07 11:51:51;;;;;;;15.82;2.70;;;25.40;99.90;;;;;;5111083;28;20194;-77
2024/01/07 11:54:22;;;;;;;10.90;2.42;;;25.30;99.90;;;;;;5123433;28;20190;-77
2024/01/07 11:56:53;;;;;;;10.73;2.28;;;25.30;99.90;;;;;;5111796;28;20194;-77
2024/01/07 11:59:24;;;;;;;15.18;2.40;;;25.30;99.90;;;;;;5116813;27;20242;-77
2024/01/07 12:01:54;;;;;;;12.32;2.55;;;25.30;99.90;;;;;;5107253;28;20198;-77
2024/01/07 12:04:28;;;;;;;11.85;2.83;;;25.40;99.90;;;;;;5119866;28;20213;-77
2024/01/07 12:06:58;;;;;;;9.55;2.15;;;25.40;99.90;;;;;;5115882;28;20217;-78
2024/01/07 12:09:29;;;;;;;8.93;2.25;;;25.30;99.90;;;;;;5123620;28;20254;-77
2024/01/07 12:12:00;;;;;;;8.65;2.20;;;25.30;99.90;;;;;;5106840;28;20190;-77
2024/01/07 12:14:33;;;;;;;10.52;2.22;;;25.40;99.90;;;;;;5116882;28;20198;-76
2024/01/07 12:17:04;;;;;;;9.82;2.28;;;25.40;99.90;;;;;;5123200;27;20612;-76
2024/01/07 12:19:37;;;;;;;12.95;2.53;;;25.40;99.90;;;;;;5111504;28;20198;-77
2024/01/07 12:22:09;;;;;;;12.90;2.83;;;25.40;99.90;;;;;;5121848;28;20194;-78
2024/01/07 12:24:39;;;;;;;10.60;2.40;;;25.40;99.90;;;;;;5107975;28;20199;-77
2024/01/07 12:27:10;;;;;;;9.60;2.28;;;25.40;99.90;;;;;;5117441;28;20194;-78
2024/01/07 12:29:41;;;;;;;10.65;2.40;;;25.30;99.90;;;;;;5108620;28;20668;-77
2024/01/07 12:32:13;;;;;;;11.43;2.20;;;25.30;99.90;;;;;;5112694;28;20200;-77
2024/01/07 12:34:46;;;;;;;12.23;2.22;;;25.30;99.90;;;;;;5116663;27;20191;-77
2024/01/07 12:37:18;;;;;;;10.40;2.13;;;25.30;99.90;;;;;;5121283;28;20764;-77
2024/01/07 12:39:49;;;;;;;10.85;2.10;;;25.30;99.90;;;;;;5125887;28;20204;-77
2024/01/07 12:42:21;;;;;;;10.93;2.00;;;25.30;99.90;;;;;;5107473;28;20203;-77
2024/01/07 12:44:52;;;;;;;11.10;2.35;;;25.20;99.90;;;;;;5106977;28;20195;-76
2024/01/07 12:47:23;;;;;;;7.22;1.90;;;25.20;99.90;;;;;;5110150;28;20233;-76
2024/01/07 12:49:56;;;;;;;10.85;2.38;;;25.20;99.90;;;;;;5106485;28;20205;-76
2024/01/07 12:52:29;;;;;;;11.57;2.40;;;25.20;99.90;;;;;;5108112;28;20210;-77
2024/01/07 12:55:00;;;;;;;9.20;2.28;;;25.20;99.90;;;;;;5112643;28;20199;-77
2024/01/07 12:57:30;;;;;;;9.32;2.30;;;25.20;99.90;;;;;;5126921;27;20212;-77
2024/01/07 13:00:01;;;;;;;9.27;2.30;;;25.20;99.90;;;;;;5109684;27;20294;-77
2024/01/07 13:02:32;;;;;;;11.65;2.33;;;25.20;99.90;;;;;;5105280;28;20190;-76
2024/01/07 13:05:05;;;;;;;10.40;2.30;;;25.20;99.90;;;;;;5113087;28;20190;-77
2024/01/07 13:07:35;;;;;;;10.45;2.53;;;25.20;99.90;;;;;;5103012;28;20218;-77
2024/01/07 13:10:06;;;;;;;9.80;2.17;;;25.20;99.90;;;;;;5101862;28;20220;-78
2024/01/07 13:12:41;;;;;;;8.90;2.25;;;25.20;99.90;;;;;;5095729;28;20210;-77
2024/01/07 13:15:12;;;;;;;14.73;2.42;;;25.10;99.90;;;;;;5093129;28;20200;-76
2024/01/07 13:17:43;;;;;;;8.48;2.33;;;25.10;99.90;;;;;;5092848;28;20203;-76
2024/01/07 13:20:17;;;;;;;13.68;2.42;;;25.10;99.90;;;;;;5112495;28;20201;-77